Annandale, NJ (08801)

8:23 AM EDT on September 05, 2015 (GMT -0400)
Regional Road | | Change Station
CLOSE
Current Station
Personal Weather Station
Location: Annandale, NJ
Elevation: 387 ft
Nearby Weather Stations

Elev 387 ft 40.63 °N, 74.89 °W | Updated 2 minutes ago

Partly Cloudy
Partly Cloudy
66.6 °F
Feels Like 66.6 °F
N
0.0
Wind Variable Wind from SSE
Gusts 4.0 mph

Today
High -- | Low -- °F
--% Chance of Precip.
Yesterday
High -- | Low -- °F
Precip. -- in
6:30 AM 7:25 PM
Waning Gibbous, 49% visible
Pressure 30.25 in
Visibility 9.0 miles
Clouds Clear
Dew Point 64 °F
Humidity 92%
Rainfall 0.00 in
Snow Depth Not available.
UV 1 out of 12
Pollen 9.60 out of 12
Air Quality Not available.
Flu Activity Not available.
METAR KSMQ 051153Z AUTO 00000KT 9SM CLR 19/16 A3025 RMK AO2 SLP244 T01890161 10211 20161 51009
Pressure 30.25 in
Visibility 9.0 miles
Clouds Clear
Dew Point 64 °F
Humidity 92%
Rainfall 0.00 in
Snow Depth Not available.
UV 1 out of 12
Pollen 9.60 out of 12
Air Quality Not available.
Flu Activity Not available.
METAR KSMQ 051153Z AUTO 00000KT 9SM CLR 19/16 A3025 RMK AO2 SLP244 T01890161 10211 20161 51009

10-Day Weather Forecast

×

Almanac

Astronomy

Sep. 05, 2015 Rise Set
Actual Time
Civil Twilight
Nautical Twilight
Astronomical Twilight
Moon
Length of Visible Light
Length of Day
Tomorrow will be .
, % of the Moon is Illuminated

Today's Extremes

State Highs State Lows

Community

WunderPhotos

Upload Photos

1,852,455 photos uploaded!

WunderBlogs® & News

Nearby

Air Quality

  Air Quality AQ Index Pollutant
Not available.

Snow Depth

Station Depth Elevation

Earthquake Activity

City Distance Mag. Time & Date
Minimum magnitude displayed is 2.5.

Coastal Water Temperatures

Place Temperature

Stations

Nearby Weather Stations

Station Location Temp. Windchill Dew Point Humidity Wind Precip. Elev Updated Type